Ruby, NY

5:24 AM EDT on May 23, 2015 (GMT -0400)
Orange County | | Change Station
CLOSE
Current Station
Airport
Location: Montgomery,
Elevation: 364 ft
Nearby Weather Stations
Active Advisory: Frost Advisory

Elev 364 ft 41.51 °N, 74.26 °W | Updated 30 minutes ago

Clear
Clear
42 °F
Feels Like 38 °F
N
6
Wind Variable Wind from WNW

Today
High -- | Low -- °F
--% Chance of Precip.
Yesterday
High -- | Low -- °F
Precip. -- in
5:28 AM 8:17 PM
Waxing Crescent, 28% visible
Pressure 30.31 in
Visibility 10.0 miles
Clouds Clear
Windchill 38 °F
Dew Point 29 °F
Humidity 60%
Rainfall 0.00 in
Snow Depth Not available.
UV 0 out of 12
Pollen 9.50 out of 12
Air Quality Not available.
Flu Activity Widespread
METAR KMGJ 230854Z AUTO 29005KT 10SM CLR 06/M02 A3031 RMK AO2 SLP262 T00561017 53033 TSNO $

More Conditions Fewer Conditions

Pressure 30.31 in
Visibility 10.0 miles
Clouds Clear
Windchill 38 °F
Dew Point 29 °F
Humidity 60%
Rainfall 0.00 in
Snow Depth Not available.
UV 0 out of 12
Pollen 9.50 out of 12
Air Quality Not available.
Flu Activity Widespread
METAR KMGJ 230854Z AUTO 29005KT 10SM CLR 06/M02 A3031 RMK AO2 SLP262 T00561017 53033 TSNO $

More Conditions Fewer Conditions

10-Day Weather Forecast

Almanac

Astronomy

May. 23, 2015 Rise Set
Actual Time
Civil Twilight
Nautical Twilight
Astronomical Twilight
Moon
Length of Visible Light
Length of Day
Tomorrow will be .
, % of the Moon is Illuminated

Today's Extremes

State Highs State Lows

Community

WunderPhotos

Upload Photos

1,823,404 photos uploaded!

WunderBlogs® & News

Nearby

Air Quality

  Air Quality AQ Index Pollutant
Not available.

Snow Depth

Station Depth Elevation

Earthquake Activity

City Distance Mag. Time & Date
Minimum magnitude displayed is 2.5.

Coastal Water Temperatures

Place Temperature

Stations

Nearby Weather Stations

Station Location Temp. Windchill Dew Point Humidity Wind Precip. Elev Updated Type
                   
Frost Advisory
Statement as of 3:33 AM EDT on May 23, 2015

... Frost advisory remains in effect until 8 am EDT this morning...

* locations... greater capital district... Mid Hudson valley...
southern Taconics... and Litchfield Hills.

* Timing... until 8 am EDT.

* Temperatures... 33 to 36.

* Impacts... areas of frost may result in damage to tender
vegetation that is not protected.

Precautionary/preparedness actions...

A frost advisory means that frost is possible. Sensitive outdoor
plants may be killed if left uncovered.